Timeline UpdatesTrip UpdatesNews PostsPvt PostsTravel TipsAdmin PostsConv PostsFollowed PostsChat RequestsBlog PostsPNR Posts

Disclaimer
Search
 
 
Thu Apr 24, 2014 19:03:54 ISTHomeTrainsΣChainsAtlasPNRForumGalleryNewsFAQTripsMembersLoginFeedback
No Recent News for this Train
Other Trains in the News **new
Latest...
Short Origination from Manikpur from 15/4/14-19/5/14
Mon Feb 24, 2014 (12:15PM)
⇐ Return Journey: Train# 51189

51190/Allahabad Itarsi Passenger (UnReserved)

Apr 24 departure has been CANCELLED from ALD/Allahabad Junction to MKP/Manikpur Junction
Sep 11 2013 (1:45PM)
Change Departure Station:
Change Arrival Station:
Post a Train Travel TipPost a Train Travel Tip **new
Post a Comment/Question/Picture/VideoPost a Comment/Question/Picture/Video
Pantry/Catering
✕ NO Pantry Car
✕ NO Catering
RSA - Rake Sharing
Rake/Coach Composition
Loco
WDM 2A ET/KATNI Shed
News    PNR    Forum    Time-Table    Availability    Fare Chart    Map    Arr/Dep History    Trips    Gallery    ΣChains    X/O    Timeline    
Travel Time: 9h 10m    23 halts    Distance: 245 km    Avg Speed: 26 km/hr
Type: Passenger
Zone: CR/Central
Departs @ 06:20 (Avg 56m late)
Platform# 1
SMTWTFS
Jabalpur Junction/JBP 
Arrives @ 15:30 (Avg 25m late)
Platform# ???
SMTWTFS
Itarsi Junction/ET 

23 halts. 25 intermediate Stations between Jabalpur Junction and Itarsi Junction

Show ALL intermediate Stations  Show Old Time-Table

#CodeStation NameX/OArrivesAvgDepartsAvgHaltPFDay#KmSpeedElevZoneAddress
1ALDAllahabad Junction (10)  -19:00+1491-366.219100mNCRAllahabad 211003, Uttar Pradesh
2NYNNaini Junction (4)  19:23+3119:25+332m31-359.19098mNCRAllahabad, Uttar Pradesh
3LKJNLink Junction CabinXO  19:28+3619:30+362m--1-354.63794mNCRAllahabad, Uttar Pradesh
4IDGJIradatganj (3)X  19:38+3619:40+372m--1-349.75199mNCRAllahabad, Uttar Pradesh
5JSRJasra (2)XO  19:47+3819:49+402m--1-343.75097mNCRJasra, Uttar Pradesh
6MFXMadaraha  19:56+4119:58+422m--1-337.954103mNCRNational Highway 76, Uttar Pradesh
7LOGLohgara (2)XO  20:05+4320:07+462m--1-331.660112mNCRLohgara, Uttar Pradesh
8SRJShankargarh (3)XO  20:17+4620:19+532m--1-321.758132mNCRShankargarh, Uttar Pradesh
9MJHRMajhiariX  20:29+5320:31+572m--1-312.116145mNCRNational Highway 76, Uttar Pradesh
10BRGBargarhO  20:58+4521:00+472m--1-304.920166mNCRBargarh, Uttar Pradesh
11KTDDKataiya DandiXO  21:17+4221:19+502m--1-299.48168mNCRKataiya, Uttar Pradesh
12DBRDabhaura (2)X  22:33+1322:35+172m--1-289.231201mNCRDabhaura, Uttar Pradesh
13PNHIPanhaiX  22:55+1422:57+212m--1-278.832214mNCRManikpur, Uttar Pradesh
14MKPManikpur Junction (4)  23:20+1423:30+1410m--1-266.743250mNCRManikpur, Uttar Pradesh
15MKDMarkundiO  23:52+2123:53+261m--1-250.847270mWCRState Highway 11, Madhya Pradesh
16TKYRTikaria (2)  00:03+2600:04+291m--2-242.956268mWCRMDR 11, Madhya Pradesh
17MJGMajhagawanXO  00:18+3000:19+311m--2-229.838343mWCRMajhgawa, Madhya Pradesh
18CTHRChitahra  00:28+3000:29+331m--2-224.056367mWCRMDR 11, Madhya Pradesh
19KTHAKhutahaX  00:37+3300:38+341m--2-216.545332mWCRMDR 11, Madhya Pradesh
20JTWJaitwar (2)X  00:48+3300:49+331m--2-209.140321mWCRJaitwar, Madhya Pradesh
21SAGMSagma (1)X  01:10+2801:11+311m12-195.220337mWCRSatna, Madhya Pradesh
22STASatna Junction (3)X  01:30+2201:40+2310m12-189.077322mWCRSatna, Madhya Pradesh
23LGCELagargawan (2)X  01:49+3001:50+311m--2-177.482319mWCRLagargawan, Madhya Pradesh
24UHRUnchhera (2)X  01:57+3201:58+361m--2-167.878331mWCRUnchhera, Madhya Pradesh
25MYRMaihar (3)X  02:09+3502:10+371m22-153.650353mWCRMaihar Railway Station, Madhya Pradesh
26BUUBhadanpur (2)  02:26+3702:27+401m--2-140.263362mWCRNational Highway 7, Madhya Pradesh
27UDRAmdara (2)X  02:39+3902:40+401m--2-127.553376mWCRNational Highway 34, Madhya Pradesh
28PKRDPakara Road (2)X  02:51+3902:52+411m--2-117.849381mWCRPakara, Madhya Pradesh
29JKEJukehi (3)X  03:04+3903:05+441m--2-108.056402mWCRJukehi, Madhya Pradesh
30PTWAPatwara (2)XO  03:14+4303:15+521m--2-99.714398mWCRNational Highway 34 Distric Katni Madhya Pradesh, Madhya Pradesh
31KTEKatni Junction (6)O  03:55+3204:05+3510m--2-90.634387mWCRKatni, Madhya Pradesh
32MDRRMadhavnagar Road (2)  04:14+4004:16+402m--2-85.560398mWCRMadhavnagar, Madhya Pradesh
33NWRNiwar (2)  04:24+4004:25+411m--2-77.558412mWCRPipraundh, Madhya Pradesh
34SNRRSansarpur (2)  04:33+3804:35+382m--2-69.752436mWCRNational Highway 7, Madhya Pradesh
35SBDSleemanabad Road (2)X  04:43+3304:44+341m--2-62.857434mWCRSleemanabad, Madhya Pradesh
36DDCEDundi (2)X  04:54+3804:55+431m--2-53.369415mWCRDundi, Madhya Pradesh
37SHRSihora Road (2)X  05:08+4205:10+432m--2-38.461388mWCRJabalpur, Madhya Pradesh
38GSPRGosalpur (2)X  05:21+4305:22+451m--2-27.339396mWCRJabalpur, Madhya Pradesh
39DOEDeori (2)X  05:38+4005:39+411m--2-16.841392mWCRJabalpur, Madhya Pradesh
40ADTLAdhartal (2)  05:52+3805:53+461m--2-8.028393mWCRJabalpur, Madhya Pradesh
41JBP»Jabalpur Junction (7)»X  06:10+5106:20+5610m120.035416mWCRJabalpur, Madhya Pradesh
42MMLMadan Mahal (3)X  06:26+5006:30+484m123.579428mWCRJabalpur, Madhya Pradesh
43BRGTBheraghat (2)  06:40+5106:41+541m--216.672389mWCRBheraghat, Madhya Pradesh
44BHTNBhitoni (2)  06:52+5506:53+571m--229.863377mWCRJabalpur, Madhya Pradesh
45BMRBikrampur (2)O  07:04+5807:05+1:001m--241.431353mWCRBikrampur Dist Narsingpur., Madhya Pradesh
46SRIDShridham (3)XO  07:28+1:0507:30+1:052m3253.261373mWCRShridham, Madhya Pradesh
47KKBKarak Bel (2)  07:45+5107:46+521m--268.533375mWCRKarak Bel, Madhya Pradesh
48BELDBelkhera (2)  07:54+5107:55+541m--272.930367mWCRState Highway 22, Madhya Pradesh
49GPCGhatpindrai (2)XO  08:06+5508:07+1:081m--278.45366mWCRGhatpindra, Madhya Pradesh
50NUNarsinghpur (2)  09:23+3209:25+372m2284.270365mWCRNarsimhapur, Madhya Pradesh
51KYKareli (2)  09:39+2809:40+321m22100.650361mWCRKareli, Madhya Pradesh
52KFYKarapgaon (2)  09:50+2909:52+292m--2108.958364mWCRNational Highway 26, Madhya Pradesh
53BNEBohani (2)  09:59+2910:00+361m--2115.760361mWCRNarsinghpur, Madhya Pradesh
54GARGadarwara (2)X  10:13+4210:14+471m22128.670352mWCRNarsinghpur, Madhya Pradesh
55SCKRSalichauka Road (2)X  10:26+4210:27+481m--2142.568355mWCRGadarwara, Madhya Pradesh
56JHTJunehta (2)X  10:36+4710:38+472m--2152.648353mWCRState Highway 22, Madhya Pradesh
57BKHBankhedi (2)XO  10:46+4710:47+511m--2159.020351mWCRBankheri, Madhya Pradesh
58PPIPipariya (3)X  11:45+3311:50+415m32178.052338mWCRPiparia, Madhya Pradesh
59SXFSobhapur (2)  12:00+3212:02+322m--2186.639338mWCRState Highway 22, Madhya Pradesh
60SGPSohagpur (2)X  12:16+3112:17+331m--2195.750340mWCRSohagpur, Madhya Pradesh
61GMDGuramkhedi (2)  12:29+3112:30+381m--2205.727337mWCRSohagpur, Madhya Pradesh
62BGTABagra Tawa (2)X  12:59+2913:00+531m--2218.827338mWCRBagra Tawa, Madhya Pradesh
63SQLSontalai (2)XO  13:15+5013:17+1:062m--2225.611329mWCRItarsi, Madhya Pradesh
64GROGurra (2)  14:05+4314:07+512m--2234.68327mWCRItarsi, Madhya Pradesh
65ET•Itarsi Junction (7)•  15:30+25---2245.2-329mWCRItarsi 461111, Madhya Pradesh
Scroll to Top
Scroll to Bottom